Unser Platzwetter:
(um das Bild zu aktualisieren oder bei unvollständig geladenem Bild den Reload-Button des Browsers drücken)

 

 
[Quelle: ADDS]
METAR
ETNN 221720Z 10010KT 9999 BKN300 23/02 Q1004 BLU+ =
TAF
SR / SS: 04:24 / 18:38 UTC (Vettweiss-Soller 2019-04-22)
 

Hier gibt es ein Wetterdiagramm der letzten 7 Tage.

Hier geht es zu unserer Webcam.

Satelitenbild:

aktuelles Meteosat-Bild von www.wetterzentrale.de